sensor_id;sensor_type;location;lat;lon;timestamp;temperature;humidity
22578;DHT22;11455;52.390;13.028;2023-02-11T00:01:43;4.50;99.90
22578;DHT22;11455;52.390;13.028;2023-02-11T00:04:08;4.50;99.90
22578;DHT22;11455;52.390;13.028;2023-02-11T00:06:34;4.50;99.90
22578;DHT22;11455;52.390;13.028;2023-02-11T00:09:00;4.50;99.90
22578;DHT22;11455;52.390;13.028;2023-02-11T00:11:26;4.50;99.90
22578;DHT22;11455;52.390;13.028;2023-02-11T00:13:59;4.50;99.90
22578;DHT22;11455;52.390;13.028;2023-02-11T00:16:25;4.60;99.90
22578;DHT22;11455;52.390;13.028;2023-02-11T00:18:51;4.60;99.90
22578;DHT22;11455;52.390;13.028;2023-02-11T00:21:19;4.50;99.90
22578;DHT22;11455;52.390;13.028;2023-02-11T00:23:45;4.50;99.90
22578;DHT22;11455;52.390;13.028;2023-02-11T00:26:15;4.50;99.90
22578;DHT22;11455;52.390;13.028;2023-02-11T00:28:41;4.60;99.90
22578;DHT22;11455;52.390;13.028;2023-02-11T00:31:09;4.70;99.90
22578;DHT22;11455;52.390;13.028;2023-02-11T00:33:36;4.80;99.90
22578;DHT22;11455;52.390;13.028;2023-02-11T00:36:05;4.90;99.90
22578;DHT22;11455;52.390;13.028;2023-02-11T00:38:32;4.90;99.10
22578;DHT22;11455;52.390;13.028;2023-02-11T00:40:57;4.90;98.70
22578;DHT22;11455;52.390;13.028;2023-02-11T00:43:24;5.00;93.90
22578;DHT22;11455;52.390;13.028;2023-02-11T00:45:49;5.00;91.30
22578;DHT22;11455;52.390;13.028;2023-02-11T00:48:15;5.00;93.70
22578;DHT22;11455;52.390;13.028;2023-02-11T00:50:40;5.00;96.10
22578;DHT22;11455;52.390;13.028;2023-02-11T00:53:06;5.00;97.10
22578;DHT22;11455;52.390;13.028;2023-02-11T00:55:32;5.00;94.60
22578;DHT22;11455;52.390;13.028;2023-02-11T00:57:57;5.10;93.80
22578;DHT22;11455;52.390;13.028;2023-02-11T01:00:25;5.10;94.00
22578;DHT22;11455;52.390;13.028;2023-02-11T01:02:53;5.20;91.30
22578;DHT22;11455;52.390;13.028;2023-02-11T01:05:19;5.20;92.20
22578;DHT22;11455;52.390;13.028;2023-02-11T01:07:47;5.20;76.60
22578;DHT22;11455;52.390;13.028;2023-02-11T01:10:12;5.20;86.50
22578;DHT22;11455;52.390;13.028;2023-02-11T01:12:40;5.20;88.50
22578;DHT22;11455;52.390;13.028;2023-02-11T01:15:07;5.20;92.90
22578;DHT22;11455;52.390;13.028;2023-02-11T01:17:33;5.20;98.40
22578;DHT22;11455;52.390;13.028;2023-02-11T01:20:02;5.20;93.20
22578;DHT22;11455;52.390;13.028;2023-02-11T01:22:28;5.30;92.20
22578;DHT22;11455;52.390;13.028;2023-02-11T01:24:54;5.30;84.60
22578;DHT22;11455;52.390;13.028;2023-02-11T01:27:19;5.20;94.90
22578;DHT22;11455;52.390;13.028;2023-02-11T01:29:45;5.20;99.90
22578;DHT22;11455;52.390;13.028;2023-02-11T01:32:11;5.20;99.90
22578;DHT22;11455;52.390;13.028;2023-02-11T01:34:37;5.20;99.90
22578;DHT22;11455;52.390;13.028;2023-02-11T01:37:11;5.30;99.90
22578;DHT22;11455;52.390;13.028;2023-02-11T01:39:43;5.40;99.90
22578;DHT22;11455;52.390;13.028;2023-02-11T01:42:17;5.40;99.90
22578;DHT22;11455;52.390;13.028;2023-02-11T01:44:50;5.40;99.90
22578;DHT22;11455;52.390;13.028;2023-02-11T01:47:24;5.50;99.90
22578;DHT22;11455;52.390;13.028;2023-02-11T01:49:58;5.40;99.90
22578;DHT22;11455;52.390;13.028;2023-02-11T01:52:33;5.40;99.90
22578;DHT22;11455;52.390;13.028;2023-02-11T01:55:08;5.50;99.90
22578;DHT22;11455;52.390;13.028;2023-02-11T01:58:01;5.40;99.90
22578;DHT22;11455;52.390;13.028;2023-02-11T02:00:34;5.40;99.90
22578;DHT22;11455;52.390;13.028;2023-02-11T02:05:44;5.40;99.90
22578;DHT22;11455;52.390;13.028;2023-02-11T02:08:22;5.40;99.90
22578;DHT22;11455;52.390;13.028;2023-02-11T02:10:51;5.50;99.90
22578;DHT22;11455;52.390;13.028;2023-02-11T02:13:23;5.50;99.90
22578;DHT22;11455;52.390;13.028;2023-02-11T02:15:52;5.50;99.90
22578;DHT22;11455;52.390;13.028;2023-02-11T02:18:27;5.60;99.90
22578;DHT22;11455;52.390;13.028;2023-02-11T02:34:08;5.60;99.90
22578;DHT22;11455;52.390;13.028;2023-02-11T02:36:42;5.70;99.90
22578;DHT22;11455;52.390;13.028;2023-02-11T02:39:10;5.70;99.90
22578;DHT22;11455;52.390;13.028;2023-02-11T02:41:39;5.70;99.90
22578;DHT22;11455;52.390;13.028;2023-02-11T02:44:06;5.80;99.90
22578;DHT22;11455;52.390;13.028;2023-02-11T02:46:33;5.80;99.90
22578;DHT22;11455;52.390;13.028;2023-02-11T02:48:59;5.80;99.90
22578;DHT22;11455;52.390;13.028;2023-02-11T02:51:38;5.90;99.90
22578;DHT22;11455;52.390;13.028;2023-02-11T02:59:30;6.00;99.90
22578;DHT22;11455;52.390;13.028;2023-02-11T03:07:36;6.10;99.90
22578;DHT22;11455;52.390;13.028;2023-02-11T03:10:10;6.10;99.90
22578;DHT22;11455;52.390;13.028;2023-02-11T03:12:38;6.10;99.90
22578;DHT22;11455;52.390;13.028;2023-02-11T03:15:05;6.10;99.90
22578;DHT22;11455;52.390;13.028;2023-02-11T03:17:32;6.10;99.90
22578;DHT22;11455;52.390;13.028;2023-02-11T03:19:58;6.10;99.90
22578;DHT22;11455;52.390;13.028;2023-02-11T03:22:25;6.10;99.90
22578;DHT22;11455;52.390;13.028;2023-02-11T03:24:51;6.10;99.90
22578;DHT22;11455;52.390;13.028;2023-02-11T03:32:32;6.10;99.90
22578;DHT22;11455;52.390;13.028;2023-02-11T03:35:02;6.10;99.90
22578;DHT22;11455;52.390;13.028;2023-02-11T03:37:31;6.10;99.90
22578;DHT22;11455;52.390;13.028;2023-02-11T03:40:00;6.10;99.90
22578;DHT22;11455;52.390;13.028;2023-02-11T03:42:29;6.10;99.90
22578;DHT22;11455;52.390;13.028;2023-02-11T03:44:58;6.10;99.90
22578;DHT22;11455;52.390;13.028;2023-02-11T03:47:25;6.00;99.90
22578;DHT22;11455;52.390;13.028;2023-02-11T03:49:52;6.10;99.90
22578;DHT22;11455;52.390;13.028;2023-02-11T03:52:20;6.10;99.90
22578;DHT22;11455;52.390;13.028;2023-02-11T03:54:46;6.20;99.90
22578;DHT22;11455;52.390;13.028;2023-02-11T03:57:14;6.10;99.90
22578;DHT22;11455;52.390;13.028;2023-02-11T04:02:38;6.20;99.90
22578;DHT22;11455;52.390;13.028;2023-02-11T04:05:05;6.10;99.90
22578;DHT22;11455;52.390;13.028;2023-02-11T04:07:31;6.20;99.90
22578;DHT22;11455;52.390;13.028;2023-02-11T04:09:57;6.10;99.90
22578;DHT22;11455;52.390;13.028;2023-02-11T04:12:22;6.20;99.90
22578;DHT22;11455;52.390;13.028;2023-02-11T04:14:48;6.20;99.90
22578;DHT22;11455;52.390;13.028;2023-02-11T04:17:14;6.20;99.90
22578;DHT22;11455;52.390;13.028;2023-02-11T04:19:39;6.20;99.90
22578;DHT22;11455;52.390;13.028;2023-02-11T04:22:05;6.20;99.90
22578;DHT22;11455;52.390;13.028;2023-02-11T04:24:31;6.20;99.90
22578;DHT22;11455;52.390;13.028;2023-02-11T04:26:57;6.20;99.90
22578;DHT22;11455;52.390;13.028;2023-02-11T04:29:23;6.30;99.90
22578;DHT22;11455;52.390;13.028;2023-02-11T04:31:48;6.20;99.90
22578;DHT22;11455;52.390;13.028;2023-02-11T04:34:14;6.20;99.90
22578;DHT22;11455;52.390;13.028;2023-02-11T04:36:40;6.20;99.90
22578;DHT22;11455;52.390;13.028;2023-02-11T04:39:05;6.20;99.90
22578;DHT22;11455;52.390;13.028;2023-02-11T04:41:31;6.20;99.90
22578;DHT22;11455;52.390;13.028;2023-02-11T04:43:57;6.10;99.90
22578;DHT22;11455;52.390;13.028;2023-02-11T04:46:22;6.20;99.90
22578;DHT22;11455;52.390;13.028;2023-02-11T04:48:48;6.20;99.90
22578;DHT22;11455;52.390;13.028;2023-02-11T04:51:13;6.20;99.90
22578;DHT22;11455;52.390;13.028;2023-02-11T04:53:39;6.20;99.90
22578;DHT22;11455;52.390;13.028;2023-02-11T04:56:05;6.10;99.90
22578;DHT22;11455;52.390;13.028;2023-02-11T04:58:31;6.20;99.90
22578;DHT22;11455;52.390;13.028;2023-02-11T05:01:04;6.10;99.90
22578;DHT22;11455;52.390;13.028;2023-02-11T05:03:29;6.10;99.90
22578;DHT22;11455;52.390;13.028;2023-02-11T05:05:55;6.10;99.90
22578;DHT22;11455;52.390;13.028;2023-02-11T05:08:20;6.10;99.90
22578;DHT22;11455;52.390;13.028;2023-02-11T05:10:46;6.20;99.90
22578;DHT22;11455;52.390;13.028;2023-02-11T05:13:12;6.20;99.90
22578;DHT22;11455;52.390;13.028;2023-02-11T05:15:38;6.20;99.90
22578;DHT22;11455;52.390;13.028;2023-02-11T05:18:03;6.20;99.90
22578;DHT22;11455;52.390;13.028;2023-02-11T05:20:29;6.20;99.90
22578;DHT22;11455;52.390;13.028;2023-02-11T05:22:54;6.20;99.90
22578;DHT22;11455;52.390;13.028;2023-02-11T05:25:20;6.20;99.90
22578;DHT22;11455;52.390;13.028;2023-02-11T05:27:46;6.20;99.90
22578;DHT22;11455;52.390;13.028;2023-02-11T05:30:11;6.20;99.90
22578;DHT22;11455;52.390;13.028;2023-02-11T05:32:37;6.20;99.90
22578;DHT22;11455;52.390;13.028;2023-02-11T05:35:03;6.20;99.90
22578;DHT22;11455;52.390;13.028;2023-02-11T05:37:29;6.20;99.90
22578;DHT22;11455;52.390;13.028;2023-02-11T05:39:54;6.20;99.90
22578;DHT22;11455;52.390;13.028;2023-02-11T05:42:20;6.20;99.90
22578;DHT22;11455;52.390;13.028;2023-02-11T05:44:45;6.20;99.90
22578;DHT22;11455;52.390;13.028;2023-02-11T05:47:11;6.20;99.90
22578;DHT22;11455;52.390;13.028;2023-02-11T05:49:37;6.20;99.90
22578;DHT22;11455;52.390;13.028;2023-02-11T05:52:05;6.20;99.90
22578;DHT22;11455;52.390;13.028;2023-02-11T05:54:31;6.20;99.90
22578;DHT22;11455;52.390;13.028;2023-02-11T05:56:56;6.20;99.90
22578;DHT22;11455;52.390;13.028;2023-02-11T05:59:22;6.20;99.90
22578;DHT22;11455;52.390;13.028;2023-02-11T06:01:48;6.30;99.90
22578;DHT22;11455;52.390;13.028;2023-02-11T06:04:13;6.40;99.90
22578;DHT22;11455;52.390;13.028;2023-02-11T06:06:39;6.40;99.90
22578;DHT22;11455;52.390;13.028;2023-02-11T06:09:04;6.50;99.90
22578;DHT22;11455;52.390;13.028;2023-02-11T06:11:32;6.50;99.90
22578;DHT22;11455;52.390;13.028;2023-02-11T06:13:58;6.50;99.90
22578;DHT22;11455;52.390;13.028;2023-02-11T06:16:24;6.50;99.90
22578;DHT22;11455;52.390;13.028;2023-02-11T06:18:49;6.50;99.90
22578;DHT22;11455;52.390;13.028;2023-02-11T06:21:15;6.50;99.90
22578;DHT22;11455;52.390;13.028;2023-02-11T06:23:41;6.50;99.90
22578;DHT22;11455;52.390;13.028;2023-02-11T06:26:08;6.50;99.90
22578;DHT22;11455;52.390;13.028;2023-02-11T06:28:34;6.60;99.90
22578;DHT22;11455;52.390;13.028;2023-02-11T06:31:04;6.50;99.90
22578;DHT22;11455;52.390;13.028;2023-02-11T06:33:31;6.60;99.90
22578;DHT22;11455;52.390;13.028;2023-02-11T06:35:56;6.60;99.90
22578;DHT22;11455;52.390;13.028;2023-02-11T06:38:22;6.60;99.90
22578;DHT22;11455;52.390;13.028;2023-02-11T06:40:48;6.50;99.90
22578;DHT22;11455;52.390;13.028;2023-02-11T06:43:14;6.50;1.00
22578;DHT22;11455;52.390;13.028;2023-02-11T06:45:40;6.50;1.00
22578;DHT22;11455;52.390;13.028;2023-02-11T06:48:05;6.50;1.00
22578;DHT22;11455;52.390;13.028;2023-02-11T06:50:31;6.50;1.00
22578;DHT22;11455;52.390;13.028;2023-02-11T06:53:00;6.50;1.00
22578;DHT22;11455;52.390;13.028;2023-02-11T06:55:26;6.50;1.00
22578;DHT22;11455;52.390;13.028;2023-02-11T06:57:51;6.50;1.00
22578;DHT22;11455;52.390;13.028;2023-02-11T07:00:17;6.50;1.00
22578;DHT22;11455;52.390;13.028;2023-02-11T07:02:43;6.50;1.00
22578;DHT22;11455;52.390;13.028;2023-02-11T07:05:09;6.60;1.00
22578;DHT22;11455;52.390;13.028;2023-02-11T07:07:35;6.60;1.00
22578;DHT22;11455;52.390;13.028;2023-02-11T07:10:01;6.60;1.00
22578;DHT22;11455;52.390;13.028;2023-02-11T07:12:30;6.60;1.00
22578;DHT22;11455;52.390;13.028;2023-02-11T07:14:56;6.60;99.90
22578;DHT22;11455;52.390;13.028;2023-02-11T07:17:22;6.60;1.00
22578;DHT22;11455;52.390;13.028;2023-02-11T07:19:49;6.60;1.00
22578;DHT22;11455;52.390;13.028;2023-02-11T07:22:15;6.50;1.00
22578;DHT22;11455;52.390;13.028;2023-02-11T07:24:40;6.50;1.00
22578;DHT22;11455;52.390;13.028;2023-02-11T07:27:06;6.60;1.00
22578;DHT22;11455;52.390;13.028;2023-02-11T07:29:31;6.60;1.00
22578;DHT22;11455;52.390;13.028;2023-02-11T07:31:57;6.70;1.00
22578;DHT22;11455;52.390;13.028;2023-02-11T07:34:23;6.70;1.00
22578;DHT22;11455;52.390;13.028;2023-02-11T07:36:50;6.80;1.00
22578;DHT22;11455;52.390;13.028;2023-02-11T07:39:15;6.80;1.00
22578;DHT22;11455;52.390;13.028;2023-02-11T07:41:41;6.80;1.00
22578;DHT22;11455;52.390;13.028;2023-02-11T07:44:09;6.80;1.00
22578;DHT22;11455;52.390;13.028;2023-02-11T07:46:34;6.80;99.90
22578;DHT22;11455;52.390;13.028;2023-02-11T07:49:00;6.90;1.00
22578;DHT22;11455;52.390;13.028;2023-02-11T07:51:27;6.90;1.00
22578;DHT22;11455;52.390;13.028;2023-02-11T07:53:54;6.90;1.00
22578;DHT22;11455;52.390;13.028;2023-02-11T07:56:20;6.90;1.00
22578;DHT22;11455;52.390;13.028;2023-02-11T07:58:46;6.80;1.00
22578;DHT22;11455;52.390;13.028;2023-02-11T08:01:14;6.90;1.00
22578;DHT22;11455;52.390;13.028;2023-02-11T08:03:40;6.90;1.00
22578;DHT22;11455;52.390;13.028;2023-02-11T08:06:11;7.00;1.00
22578;DHT22;11455;52.390;13.028;2023-02-11T08:08:38;7.00;1.00
22578;DHT22;11455;52.390;13.028;2023-02-11T08:11:07;7.00;1.00
22578;DHT22;11455;52.390;13.028;2023-02-11T08:13:33;7.00;1.00
22578;DHT22;11455;52.390;13.028;2023-02-11T08:15:59;7.10;1.00
22578;DHT22;11455;52.390;13.028;2023-02-11T08:18:24;7.10;1.00
22578;DHT22;11455;52.390;13.028;2023-02-11T08:20:50;7.10;1.00
22578;DHT22;11455;52.390;13.028;2023-02-11T08:23:18;7.10;1.00
22578;DHT22;11455;52.390;13.028;2023-02-11T08:25:44;7.00;1.00
22578;DHT22;11455;52.390;13.028;2023-02-11T08:28:10;7.10;1.00
22578;DHT22;11455;52.390;13.028;2023-02-11T08:30:35;7.10;1.00
22578;DHT22;11455;52.390;13.028;2023-02-11T08:33:01;7.10;1.00
22578;DHT22;11455;52.390;13.028;2023-02-11T08:35:27;7.10;1.00
22578;DHT22;11455;52.390;13.028;2023-02-11T08:37:52;7.20;1.00
22578;DHT22;11455;52.390;13.028;2023-02-11T08:40:18;7.20;1.00
22578;DHT22;11455;52.390;13.028;2023-02-11T08:42:44;7.20;1.00
22578;DHT22;11455;52.390;13.028;2023-02-11T08:45:12;7.20;1.00
22578;DHT22;11455;52.390;13.028;2023-02-11T08:47:38;7.20;1.00
22578;DHT22;11455;52.390;13.028;2023-02-11T08:50:04;7.20;1.00
22578;DHT22;11455;52.390;13.028;2023-02-11T08:52:29;7.20;1.00
22578;DHT22;11455;52.390;13.028;2023-02-11T08:54:55;7.20;1.00
22578;DHT22;11455;52.390;13.028;2023-02-11T08:57:21;7.20;1.00
22578;DHT22;11455;52.390;13.028;2023-02-11T08:59:46;7.20;1.00
22578;DHT22;11455;52.390;13.028;2023-02-11T09:02:12;7.30;1.00
22578;DHT22;11455;52.390;13.028;2023-02-11T09:04:38;7.30;1.00
22578;DHT22;11455;52.390;13.028;2023-02-11T09:07:04;7.30;1.00
22578;DHT22;11455;52.390;13.028;2023-02-11T09:09:30;7.30;1.00
22578;DHT22;11455;52.390;13.028;2023-02-11T09:11:56;7.30;1.00
22578;DHT22;11455;52.390;13.028;2023-02-11T09:14:22;7.40;1.00
22578;DHT22;11455;52.390;13.028;2023-02-11T09:16:48;7.40;1.00
22578;DHT22;11455;52.390;13.028;2023-02-11T09:19:14;7.40;1.00
22578;DHT22;11455;52.390;13.028;2023-02-11T09:21:39;7.40;1.00
22578;DHT22;11455;52.390;13.028;2023-02-11T09:24:05;7.40;1.00
22578;DHT22;11455;52.390;13.028;2023-02-11T09:26:32;7.30;1.00
22578;DHT22;11455;52.390;13.028;2023-02-11T09:28:58;7.30;1.00
22578;DHT22;11455;52.390;13.028;2023-02-11T09:31:25;7.40;1.00
22578;DHT22;11455;52.390;13.028;2023-02-11T09:33:52;7.40;1.00
22578;DHT22;11455;52.390;13.028;2023-02-11T09:36:19;7.50;1.00
22578;DHT22;11455;52.390;13.028;2023-02-11T09:38:45;7.50;1.00
22578;DHT22;11455;52.390;13.028;2023-02-11T09:43:56;7.60;1.00
22578;DHT22;11455;52.390;13.028;2023-02-11T09:46:22;7.50;1.00
22578;DHT22;11455;52.390;13.028;2023-02-11T09:48:49;7.60;1.00
22578;DHT22;11455;52.390;13.028;2023-02-11T09:51:20;7.60;1.00
22578;DHT22;11455;52.390;13.028;2023-02-11T09:53:50;7.60;1.00
22578;DHT22;11455;52.390;13.028;2023-02-11T09:56:18;7.60;1.00
22578;DHT22;11455;52.390;13.028;2023-02-11T09:58:44;7.60;1.00
22578;DHT22;11455;52.390;13.028;2023-02-11T10:01:28;7.60;1.00
22578;DHT22;11455;52.390;13.028;2023-02-11T10:11:34;7.70;1.00
22578;DHT22;11455;52.390;13.028;2023-02-11T10:19:44;7.70;1.00
22578;DHT22;11455;52.390;13.028;2023-02-11T10:22:21;7.70;1.00
22578;DHT22;11455;52.390;13.028;2023-02-11T10:24:55;7.80;1.00
22578;DHT22;11455;52.390;13.028;2023-02-11T10:27:30;7.80;1.00
22578;DHT22;11455;52.390;13.028;2023-02-11T10:30:08;7.80;1.00
22578;DHT22;11455;52.390;13.028;2023-02-11T10:32:42;7.70;1.00
22578;DHT22;11455;52.390;13.028;2023-02-11T10:35:12;7.70;1.00
22578;DHT22;11455;52.390;13.028;2023-02-11T10:37:42;7.70;1.00
22578;DHT22;11455;52.390;13.028;2023-02-11T10:40:14;7.80;1.00
22578;DHT22;11455;52.390;13.028;2023-02-11T10:42:41;7.70;1.00
22578;DHT22;11455;52.390;13.028;2023-02-11T10:45:09;7.70;1.00
22578;DHT22;11455;52.390;13.028;2023-02-11T10:47:42;7.70;1.00
22578;DHT22;11455;52.390;13.028;2023-02-11T10:50:18;7.80;1.00
22578;DHT22;11455;52.390;13.028;2023-02-11T10:52:44;7.80;1.00
22578;DHT22;11455;52.390;13.028;2023-02-11T10:55:14;7.80;1.00
22578;DHT22;11455;52.390;13.028;2023-02-11T11:03:01;7.70;1.00
22578;DHT22;11455;52.390;13.028;2023-02-11T11:05:32;7.70;1.00
22578;DHT22;11455;52.390;13.028;2023-02-11T11:07:59;7.80;1.00
22578;DHT22;11455;52.390;13.028;2023-02-11T11:12:54;7.80;1.00
22578;DHT22;11455;52.390;13.028;2023-02-11T11:15:24;7.80;1.00
22578;DHT22;11455;52.390;13.028;2023-02-11T11:17:51;7.80;1.00
22578;DHT22;11455;52.390;13.028;2023-02-11T11:20:33;7.80;1.00
22578;DHT22;11455;52.390;13.028;2023-02-11T11:25:33;7.90;1.00
22578;DHT22;11455;52.390;13.028;2023-02-11T11:28:00;7.80;1.00
22578;DHT22;11455;52.390;13.028;2023-02-11T11:30:30;7.80;1.00
22578;DHT22;11455;52.390;13.028;2023-02-11T11:32:57;7.80;1.00
22578;DHT22;11455;52.390;13.028;2023-02-11T11:35:24;7.80;1.00
22578;DHT22;11455;52.390;13.028;2023-02-11T11:37:51;7.80;1.00
22578;DHT22;11455;52.390;13.028;2023-02-11T11:42:44;7.80;1.00
22578;DHT22;11455;52.390;13.028;2023-02-11T11:50:26;7.80;1.00
22578;DHT22;11455;52.390;13.028;2023-02-11T11:55:30;7.80;1.00
22578;DHT22;11455;52.390;13.028;2023-02-11T11:57:57;7.90;1.00
22578;DHT22;11455;52.390;13.028;2023-02-11T12:00:26;7.90;1.00
22578;DHT22;11455;52.390;13.028;2023-02-11T12:03:13;7.90;1.00
22578;DHT22;11455;52.390;13.028;2023-02-11T12:08:23;7.90;1.00
22578;DHT22;11455;52.390;13.028;2023-02-11T12:39:47;8.10;1.00
22578;DHT22;11455;52.390;13.028;2023-02-11T12:48:10;8.20;1.00
22578;DHT22;11455;52.390;13.028;2023-02-11T12:57:39;8.30;1.00
22578;DHT22;11455;52.390;13.028;2023-02-11T13:00:07;8.30;1.00
22578;DHT22;11455;52.390;13.028;2023-02-11T13:05:23;8.30;1.00
22578;DHT22;11455;52.390;13.028;2023-02-11T13:07:51;8.30;1.00
22578;DHT22;11455;52.390;13.028;2023-02-11T13:12:44;8.30;1.00
22578;DHT22;11455;52.390;13.028;2023-02-11T13:15:29;8.30;1.00
22578;DHT22;11455;52.390;13.028;2023-02-11T13:22:58;8.30;1.00
22578;DHT22;11455;52.390;13.028;2023-02-11T13:25:37;8.30;1.00
22578;DHT22;11455;52.390;13.028;2023-02-11T13:28:16;8.30;1.00
22578;DHT22;11455;52.390;13.028;2023-02-11T13:30:44;8.30;1.00
22578;DHT22;11455;52.390;13.028;2023-02-11T13:38:22;8.30;1.00
22578;DHT22;11455;52.390;13.028;2023-02-11T13:43:27;8.40;1.00
22578;DHT22;11455;52.390;13.028;2023-02-11T13:45:57;8.40;1.00
22578;DHT22;11455;52.390;13.028;2023-02-11T13:48:24;8.30;1.00
22578;DHT22;11455;52.390;13.028;2023-02-11T13:50:52;8.40;1.00
22578;DHT22;11455;52.390;13.028;2023-02-11T13:53:17;8.40;1.00
22578;DHT22;11455;52.390;13.028;2023-02-11T13:55:45;8.40;1.00
22578;DHT22;11455;52.390;13.028;2023-02-11T13:58:16;8.40;1.00
22578;DHT22;11455;52.390;13.028;2023-02-11T14:00:44;8.40;1.00
22578;DHT22;11455;52.390;13.028;2023-02-11T14:16:40;8.40;1.00
22578;DHT22;11455;52.390;13.028;2023-02-11T14:19:32;8.40;1.00
22578;DHT22;11455;52.390;13.028;2023-02-11T14:22:02;8.40;1.00
22578;DHT22;11455;52.390;13.028;2023-02-11T14:26:59;8.40;1.00
22578;DHT22;11455;52.390;13.028;2023-02-11T14:29:32;8.40;1.00
22578;DHT22;11455;52.390;13.028;2023-02-11T14:42:06;8.40;1.00
22578;DHT22;11455;52.390;13.028;2023-02-11T14:44:39;8.40;1.00
22578;DHT22;11455;52.390;13.028;2023-02-11T14:47:05;8.40;1.00
22578;DHT22;11455;52.390;13.028;2023-02-11T14:49:35;8.40;1.00
22578;DHT22;11455;52.390;13.028;2023-02-11T14:52:13;8.40;1.00
22578;DHT22;11455;52.390;13.028;2023-02-11T14:54:41;8.40;1.00
22578;DHT22;11455;52.390;13.028;2023-02-11T14:57:12;8.40;1.00
22578;DHT22;11455;52.390;13.028;2023-02-11T14:59:39;8.50;1.00
22578;DHT22;11455;52.390;13.028;2023-02-11T15:02:21;8.40;1.00
22578;DHT22;11455;52.390;13.028;2023-02-11T15:04:47;8.40;1.00
22578;DHT22;11455;52.390;13.028;2023-02-11T15:07:13;8.50;1.00
22578;DHT22;11455;52.390;13.028;2023-02-11T15:09:41;8.50;1.00
22578;DHT22;11455;52.390;13.028;2023-02-11T15:12:16;8.50;1.00
22578;DHT22;11455;52.390;13.028;2023-02-11T15:14:47;8.50;1.00
22578;DHT22;11455;52.390;13.028;2023-02-11T15:17:15;8.50;1.00
22578;DHT22;11455;52.390;13.028;2023-02-11T15:19:46;8.50;1.00
22578;DHT22;11455;52.390;13.028;2023-02-11T15:22:16;8.50;1.00
22578;DHT22;11455;52.390;13.028;2023-02-11T15:24:44;8.50;1.00
22578;DHT22;11455;52.390;13.028;2023-02-11T15:27:13;8.50;1.00
22578;DHT22;11455;52.390;13.028;2023-02-11T15:29:45;8.50;1.00
22578;DHT22;11455;52.390;13.028;2023-02-11T15:32:15;8.50;1.00
22578;DHT22;11455;52.390;13.028;2023-02-11T15:34:41;8.40;1.00
22578;DHT22;11455;52.390;13.028;2023-02-11T15:37:09;8.50;1.00
22578;DHT22;11455;52.390;13.028;2023-02-11T15:39:40;8.50;1.00
22578;DHT22;11455;52.390;13.028;2023-02-11T15:42:25;8.50;1.00
22578;DHT22;11455;52.390;13.028;2023-02-11T15:48:06;8.40;1.00
22578;DHT22;11455;52.390;13.028;2023-02-11T15:50:34;8.40;1.00
22578;DHT22;11455;52.390;13.028;2023-02-11T15:55:46;8.30;1.00
22578;DHT22;11455;52.390;13.028;2023-02-11T15:58:13;8.30;1.00
22578;DHT22;11455;52.390;13.028;2023-02-11T16:00:49;8.20;1.00
22578;DHT22;11455;52.390;13.028;2023-02-11T16:03:22;8.20;1.00
22578;DHT22;11455;52.390;13.028;2023-02-11T16:05:48;8.20;1.00
22578;DHT22;11455;52.390;13.028;2023-02-11T16:08:24;8.10;1.00
22578;DHT22;11455;52.390;13.028;2023-02-11T16:10:57;8.20;1.00
22578;DHT22;11455;52.390;13.028;2023-02-11T16:13:23;8.20;1.00
22578;DHT22;11455;52.390;13.028;2023-02-11T16:15:51;8.20;1.00
22578;DHT22;11455;52.390;13.028;2023-02-11T16:18:21;8.20;1.00
22578;DHT22;11455;52.390;13.028;2023-02-11T16:20:48;8.20;1.00
22578;DHT22;11455;52.390;13.028;2023-02-11T16:23:24;8.20;1.00
22578;DHT22;11455;52.390;13.028;2023-02-11T16:25:54;8.20;1.00
22578;DHT22;11455;52.390;13.028;2023-02-11T16:28:21;8.20;1.00
22578;DHT22;11455;52.390;13.028;2023-02-11T16:30:49;8.20;1.00
22578;DHT22;11455;52.390;13.028;2023-02-11T16:33:15;8.10;1.00
22578;DHT22;11455;52.390;13.028;2023-02-11T16:35:41;8.10;1.00
22578;DHT22;11455;52.390;13.028;2023-02-11T16:38:09;8.10;1.00
22578;DHT22;11455;52.390;13.028;2023-02-11T16:40:34;8.20;1.00
22578;DHT22;11455;52.390;13.028;2023-02-11T16:43:01;8.10;1.00
22578;DHT22;11455;52.390;13.028;2023-02-11T16:45:26;8.10;1.00
22578;DHT22;11455;52.390;13.028;2023-02-11T16:47:52;8.10;1.00
22578;DHT22;11455;52.390;13.028;2023-02-11T16:50:19;8.10;1.00
22578;DHT22;11455;52.390;13.028;2023-02-11T16:52:46;8.10;1.00
22578;DHT22;11455;52.390;13.028;2023-02-11T16:55:12;8.10;1.00
22578;DHT22;11455;52.390;13.028;2023-02-11T16:57:38;8.10;1.00
22578;DHT22;11455;52.390;13.028;2023-02-11T17:00:05;8.10;1.00
22578;DHT22;11455;52.390;13.028;2023-02-11T17:02:32;8.10;1.00
22578;DHT22;11455;52.390;13.028;2023-02-11T17:04:58;8.10;1.00
22578;DHT22;11455;52.390;13.028;2023-02-11T17:07:25;8.10;1.00
22578;DHT22;11455;52.390;13.028;2023-02-11T17:09:51;8.10;1.00
22578;DHT22;11455;52.390;13.028;2023-02-11T17:12:17;8.10;1.00
22578;DHT22;11455;52.390;13.028;2023-02-11T17:14:43;8.10;1.00
22578;DHT22;11455;52.390;13.028;2023-02-11T17:17:09;8.10;1.00
22578;DHT22;11455;52.390;13.028;2023-02-11T17:19:36;8.20;1.00
22578;DHT22;11455;52.390;13.028;2023-02-11T17:22:02;8.20;1.00
22578;DHT22;11455;52.390;13.028;2023-02-11T17:24:27;8.20;1.00
22578;DHT22;11455;52.390;13.028;2023-02-11T17:26:53;8.20;1.00
22578;DHT22;11455;52.390;13.028;2023-02-11T17:29:20;8.20;1.00
22578;DHT22;11455;52.390;13.028;2023-02-11T17:31:46;8.20;1.00
22578;DHT22;11455;52.390;13.028;2023-02-11T17:34:12;8.20;1.00
22578;DHT22;11455;52.390;13.028;2023-02-11T17:36:40;8.20;1.00
22578;DHT22;11455;52.390;13.028;2023-02-11T17:39:06;8.20;1.00
22578;DHT22;11455;52.390;13.028;2023-02-11T17:41:31;8.20;1.00
22578;DHT22;11455;52.390;13.028;2023-02-11T17:43:57;8.30;1.00
22578;DHT22;11455;52.390;13.028;2023-02-11T17:46:23;8.30;1.00
22578;DHT22;11455;52.390;13.028;2023-02-11T17:48:49;8.30;1.00
22578;DHT22;11455;52.390;13.028;2023-02-11T17:51:22;8.30;1.00
22578;DHT22;11455;52.390;13.028;2023-02-11T17:53:49;8.30;1.00
22578;DHT22;11455;52.390;13.028;2023-02-11T17:56:15;8.30;1.00
22578;DHT22;11455;52.390;13.028;2023-02-11T17:58:41;8.30;1.00
22578;DHT22;11455;52.390;13.028;2023-02-11T18:01:06;8.20;1.00
22578;DHT22;11455;52.390;13.028;2023-02-11T18:03:32;8.20;1.00
22578;DHT22;11455;52.390;13.028;2023-02-11T18:05:59;8.20;1.00
22578;DHT22;11455;52.390;13.028;2023-02-11T18:08:24;8.20;1.00
22578;DHT22;11455;52.390;13.028;2023-02-11T18:10:50;8.20;1.00
22578;DHT22;11455;52.390;13.028;2023-02-11T18:13:16;8.20;1.00
22578;DHT22;11455;52.390;13.028;2023-02-11T18:15:42;8.30;1.00
22578;DHT22;11455;52.390;13.028;2023-02-11T18:18:08;8.30;1.00
22578;DHT22;11455;52.390;13.028;2023-02-11T18:20:34;8.30;1.00
22578;DHT22;11455;52.390;13.028;2023-02-11T18:22:59;8.30;1.00
22578;DHT22;11455;52.390;13.028;2023-02-11T18:25:25;8.30;1.00
22578;DHT22;11455;52.390;13.028;2023-02-11T18:27:51;8.30;1.00
22578;DHT22;11455;52.390;13.028;2023-02-11T18:30:17;8.30;1.00